Time;durP1;ratioP1;P1;durP2;ratioP2;P2;SDS_P1;SDS_P2;PMS_P1;PMS_P2;Temp;Humidity;BMP_temperature;BMP_pressure;BME280_temperature;BME280_humidity;BME280_pressure;Samples;Min_cycle;Max_cycle;Signal;HPM_P1;HPM_P2
2023/03/14 00:01:12;;;;;;;2.95;2.67;;;9.50;99.90;;;;;;5032778;28;20264;-83
2023/03/14 00:03:41;;;;;;;2.60;2.40;;;9.50;99.90;;;;;;5033176;28;20283;-83
2023/03/14 00:06:11;;;;;;;3.22;2.92;;;9.40;99.90;;;;;;5033558;28;20316;-84
2023/03/14 00:08:40;;;;;;;2.65;2.45;;;9.40;99.90;;;;;;5032506;28;20289;-84
2023/03/14 00:11:12;;;;;;;3.15;2.85;;;9.30;99.90;;;;;;5033090;28;20230;-84
2023/03/14 00:13:40;;;;;;;3.47;2.72;;;9.20;99.90;;;;;;5033149;28;20241;-84
2023/03/14 00:16:11;;;;;;;4.07;2.95;;;9.20;99.90;;;;;;5032738;28;20206;-83
2023/03/14 00:18:40;;;;;;;2.13;2.00;;;9.20;99.90;;;;;;5032826;28;20283;-84
2023/03/14 00:21:11;;;;;;;3.85;2.97;;;9.20;99.90;;;;;;5032526;28;20241;-83
2023/03/14 00:23:42;;;;;;;3.05;2.83;;;9.20;99.90;;;;;;5033039;28;20251;-83
2023/03/14 00:26:11;;;;;;;28.52;3.05;;;9.20;99.90;;;;;;5033141;28;20214;-83
2023/03/14 00:28:40;;;;;;;3.85;2.78;;;9.20;99.90;;;;;;5031620;28;20369;-83
2023/03/14 00:31:11;;;;;;;2.80;2.60;;;9.10;99.90;;;;;;5032902;28;20230;-83
2023/03/14 00:33:39;;;;;;;17.10;2.90;;;9.10;99.90;;;;;;5032931;28;20210;-83
2023/03/14 00:36:12;;;;;;;5.05;2.67;;;9.10;99.90;;;;;;5032394;28;20253;-83
2023/03/14 00:38:42;;;;;;;2.83;2.63;;;9.10;99.90;;;;;;5032008;28;20217;-83
2023/03/14 00:41:12;;;;;;;2.85;2.30;;;9.10;99.90;;;;;;5032387;28;20234;-83
2023/03/14 00:43:41;;;;;;;3.58;2.53;;;9.00;99.90;;;;;;5032562;28;20214;-84
2023/03/14 00:46:09;;;;;;;9.63;2.78;;;9.00;99.90;;;;;;5032257;28;20214;-83
2023/03/14 00:48:38;;;;;;;2.38;2.17;;;8.90;99.90;;;;;;5031434;28;20309;-83
2023/03/14 00:51:09;;;;;;;3.75;2.83;;;8.80;99.90;;;;;;5032570;28;20246;-83
2023/03/14 00:53:40;;;;;;;3.38;3.08;;;8.80;99.90;;;;;;5032548;28;20253;-83
2023/03/14 00:56:11;;;;;;;3.20;2.67;;;8.70;99.90;;;;;;5032528;28;20230;-83
2023/03/14 00:58:39;;;;;;;9.95;3.38;;;8.70;99.90;;;;;;5031416;28;20210;-82
2023/03/14 01:01:10;;;;;;;2.63;2.42;;;8.70;99.90;;;;;;5032254;28;20261;-83
2023/03/14 01:03:38;;;;;;;4.68;3.38;;;8.60;99.90;;;;;;5032458;28;20297;-83
2023/03/14 01:06:12;;;;;;;3.92;2.88;;;8.70;99.90;;;;;;5034615;28;20305;-83
2023/03/14 01:08:42;;;;;;;3.28;2.97;;;8.60;99.90;;;;;;5032699;28;20315;-83
2023/03/14 01:11:16;;;;;;;3.85;2.85;;;8.60;99.90;;;;;;5034186;28;20265;-84
2023/03/14 01:13:45;;;;;;;5.15;3.00;;;8.60;99.90;;;;;;5034559;28;20275;-84
2023/03/14 01:16:14;;;;;;;2.83;2.53;;;8.60;99.90;;;;;;5034051;28;20266;-83
2023/03/14 01:18:44;;;;;;;2.47;2.28;;;8.50;99.90;;;;;;5033793;28;20217;-83
2023/03/14 01:21:15;;;;;;;4.82;2.65;;;8.50;99.90;;;;;;5034453;28;20244;-83
2023/03/14 01:23:46;;;;;;;2.80;2.47;;;8.40;99.90;;;;;;5034048;28;20202;-83
2023/03/14 01:26:18;;;;;;;2.30;2.10;;;8.40;99.90;;;;;;5034143;28;20211;-83
2023/03/14 01:28:48;;;;;;;5.35;2.83;;;8.40;99.90;;;;;;5033385;28;20219;-83
2023/03/14 01:31:17;;;;;;;3.72;3.03;;;8.40;99.90;;;;;;5033804;28;20233;-83
2023/03/14 01:33:45;;;;;;;3.20;2.60;;;8.40;99.90;;;;;;5033801;28;20210;-83
2023/03/14 01:36:15;;;;;;;4.63;2.53;;;8.40;99.90;;;;;;5034233;28;20210;-83
2023/03/14 01:38:45;;;;;;;2.72;2.28;;;8.40;99.90;;;;;;5033801;28;20225;-84
2023/03/14 01:41:16;;;;;;;2.42;2.22;;;8.40;99.90;;;;;;5033916;28;20253;-84
2023/03/14 01:43:45;;;;;;;3.83;3.03;;;8.40;99.90;;;;;;5033452;28;20245;-83
2023/03/14 01:46:26;;;;;;;3.15;2.63;;;8.30;99.90;;;;;;5033362;28;20202;-83
2023/03/14 01:49:00;;;;;;;3.20;2.90;;;8.30;99.90;;;;;;5032343;28;20309;-83
2023/03/14 01:51:31;;;;;;;4.05;2.47;;;8.30;99.90;;;;;;5034209;28;20218;-83
2023/03/14 01:54:07;;;;;;;6.45;3.65;;;8.30;99.90;;;;;;5033404;28;20202;-83
2023/03/14 01:56:38;;;;;;;3.72;3.38;;;8.30;99.90;;;;;;5033563;28;20224;-83
2023/03/14 01:59:09;;;;;;;9.00;3.47;;;8.30;99.90;;;;;;5033475;28;20266;-84
2023/03/14 02:01:37;;;;;;;3.72;3.20;;;8.30;99.90;;;;;;5033287;28;20214;-84
2023/03/14 02:04:08;;;;;;;2.80;2.30;;;8.20;99.90;;;;;;5033455;28;20205;-83
2023/03/14 02:06:46;;;;;;;8.98;3.15;;;8.20;99.90;;;;;;5033521;28;20234;-83
2023/03/14 02:09:16;;;;;;;3.63;2.67;;;8.20;99.90;;;;;;5033402;28;20241;-84
2023/03/14 02:11:45;;;;;;;5.57;2.55;;;8.20;99.90;;;;;;5033424;28;20206;-83
2023/03/14 02:14:25;;;;;;;7.15;3.28;;;8.10;99.90;;;;;;5033348;28;20210;-83
2023/03/14 02:16:54;;;;;;;4.47;3.55;;;8.10;99.90;;;;;;5032524;28;20260;-83
2023/03/14 02:19:36;;;;;;;3.47;3.17;;;8.10;99.90;;;;;;5033098;28;20222;-83
2023/03/14 02:22:09;;;;;;;3.33;3.05;;;8.10;99.90;;;;;;5033518;28;20215;-83
2023/03/14 02:24:48;;;;;;;4.63;3.22;;;8.10;99.90;;;;;;5032931;28;20225;-83
2023/03/14 02:27:19;;;;;;;3.10;2.53;;;8.10;99.90;;;;;;5032535;28;20230;-83
2023/03/14 02:29:52;;;;;;;4.40;3.53;;;8.10;99.90;;;;;;5032434;28;20261;-83
2023/03/14 02:32:21;;;;;;;3.13;2.83;;;8.10;99.90;;;;;;5033291;28;20218;-83
2023/03/14 02:34:53;;;;;;;3.88;3.38;;;8.00;99.90;;;;;;5032998;28;20206;-83
2023/03/14 02:37:26;;;;;;;2.85;2.65;;;8.00;99.90;;;;;;5032578;28;20225;-83
2023/03/14 02:39:55;;;;;;;3.38;3.08;;;8.00;99.90;;;;;;5032954;28;20284;-83
2023/03/14 02:42:25;;;;;;;2.55;2.35;;;8.00;99.90;;;;;;5032646;28;20198;-83
2023/03/14 02:44:55;;;;;;;3.92;2.85;;;8.00;99.90;;;;;;5032869;28;20210;-83
2023/03/14 02:47:28;;;;;;;3.75;3.20;;;8.00;99.90;;;;;;5032349;28;20206;-83
2023/03/14 02:50:02;;;;;;;3.20;2.80;;;8.00;99.90;;;;;;5032657;28;20226;-83
2023/03/14 02:52:30;;;;;;;4.85;2.60;;;8.00;99.90;;;;;;5032992;28;20206;-83
2023/03/14 02:54:58;;;;;;;2.97;2.67;;;8.00;99.90;;;;;;5032263;28;20206;-83
2023/03/14 02:57:28;;;;;;;2.53;2.33;;;8.10;99.90;;;;;;5032342;28;20309;-84
2023/03/14 02:59:59;;;;;;;2.38;2.15;;;8.10;99.90;;;;;;5032495;28;20257;-84
2023/03/14 03:02:28;;;;;;;3.13;2.42;;;8.10;99.90;;;;;;5032633;28;20210;-82
2023/03/14 03:04:56;;;;;;;3.08;2.33;;;8.20;99.90;;;;;;5032892;28;20302;-83
2023/03/14 03:07:25;;;;;;;5.55;2.90;;;8.20;99.90;;;;;;5032357;28;20206;-84
2023/03/14 03:09:53;;;;;;;4.72;2.83;;;8.20;99.90;;;;;;5032575;28;20226;-83
2023/03/14 03:12:21;;;;;;;3.85;2.72;;;8.20;99.90;;;;;;5032848;28;20231;-83
2023/03/14 03:14:51;;;;;;;3.20;2.55;;;8.20;99.90;;;;;;5032219;28;20305;-83
2023/03/14 03:17:20;;;;;;;3.50;2.85;;;8.20;99.90;;;;;;5031812;28;20225;-84
2023/03/14 03:19:48;;;;;;;2.83;2.30;;;8.20;99.90;;;;;;5032352;28;20257;-83
2023/03/14 03:22:16;;;;;;;3.28;2.80;;;8.20;99.90;;;;;;5032719;28;20230;-83
2023/03/14 03:24:45;;;;;;;2.55;2.45;;;8.10;99.90;;;;;;5032683;28;20222;-84
2023/03/14 03:27:13;;;;;;;2.25;2.13;;;8.10;99.90;;;;;;5032003;28;20198;-84
2023/03/14 03:29:41;;;;;;;2.65;2.45;;;8.10;99.90;;;;;;5031762;28;20233;-84
2023/03/14 03:32:11;;;;;;;2.47;2.28;;;8.10;99.90;;;;;;5032559;28;20256;-83
2023/03/14 03:34:40;;;;;;;4.68;2.83;;;8.10;99.90;;;;;;5032414;28;20198;-84
2023/03/14 03:37:08;;;;;;;8.07;3.30;;;8.10;99.90;;;;;;5031922;28;20203;-84
2023/03/14 03:39:36;;;;;;;3.50;3.05;;;8.10;99.90;;;;;;5032316;28;20226;-83
2023/03/14 03:42:05;;;;;;;2.40;2.28;;;8.10;99.90;;;;;;5032278;28;20245;-84
2023/03/14 03:44:33;;;;;;;4.30;2.78;;;8.10;99.90;;;;;;5032162;28;20217;-84
2023/03/14 03:47:01;;;;;;;8.13;3.30;;;8.20;99.90;;;;;;5031444;28;20234;-83
2023/03/14 03:49:32;;;;;;;2.40;2.30;;;8.20;99.90;;;;;;5032134;28;20294;-83
2023/03/14 03:52:00;;;;;;;6.10;3.25;;;8.20;99.90;;;;;;5031738;28;20274;-84
2023/03/14 03:54:29;;;;;;;3.40;3.10;;;8.20;99.90;;;;;;5032166;28;20241;-84
2023/03/14 03:56:58;;;;;;;3.03;2.80;;;8.30;99.90;;;;;;5031785;28;20199;-84
2023/03/14 03:59:26;;;;;;;5.72;3.22;;;8.30;99.90;;;;;;5031982;28;20218;-84
2023/03/14 04:01:55;;;;;;;3.75;3.25;;;8.20;99.90;;;;;;5032130;28;20233;-84
2023/03/14 04:04:23;;;;;;;3.55;3.20;;;8.20;99.90;;;;;;5032316;28;20241;-84
2023/03/14 04:06:53;;;;;;;3.72;3.33;;;8.20;99.90;;;;;;5031224;28;20234;-83
2023/03/14 04:09:22;;;;;;;5.78;4.00;;;8.20;99.90;;;;;;5031826;28;20313;-84
2023/03/14 04:11:50;;;;;;;3.20;2.97;;;8.10;99.90;;;;;;5034347;28;20252;-84
2023/03/14 04:14:18;;;;;;;3.67;3.33;;;8.10;99.90;;;;;;5035386;28;20301;-84
2023/03/14 04:16:46;;;;;;;4.43;3.88;;;8.10;99.90;;;;;;5035505;28;20210;-84
2023/03/14 04:19:15;;;;;;;3.53;3.08;;;8.00;99.90;;;;;;5035334;28;20206;-84
2023/03/14 04:21:46;;;;;;;4.50;3.53;;;8.00;99.90;;;;;;5035354;28;20297;-83
2023/03/14 04:24:16;;;;;;;3.90;3.08;;;8.00;99.90;;;;;;5035334;28;20293;-82
2023/03/14 04:26:45;;;;;;;3.67;3.28;;;8.00;99.90;;;;;;5035256;28;20233;-84
2023/03/14 04:29:13;;;;;;;11.85;4.18;;;8.00;99.90;;;;;;5034803;28;20538;-83
2023/03/14 04:31:41;;;;;;;2.90;2.70;;;8.00;99.90;;;;;;5035049;28;20257;-84
2023/03/14 04:34:10;;;;;;;4.97;3.65;;;8.10;99.90;;;;;;5035049;28;20212;-83
2023/03/14 04:36:38;;;;;;;3.08;2.72;;;8.30;99.90;;;;;;5035091;28;20225;-83
2023/03/14 04:39:07;;;;;;;3.15;2.85;;;8.50;99.90;;;;;;5034426;28;20210;-83
2023/03/14 04:41:37;;;;;;;5.28;2.72;;;8.60;99.90;;;;;;5035329;28;20232;-84
2023/03/14 04:44:06;;;;;;;3.15;2.83;;;8.70;99.90;;;;;;5035370;28;20238;-83
2023/03/14 04:46:34;;;;;;;2.80;2.60;;;8.80;99.90;;;;;;5034915;28;20214;-83
2023/03/14 04:49:02;;;;;;;2.95;2.75;;;8.80;99.90;;;;;;5034247;28;20207;-83
2023/03/14 04:51:30;;;;;;;4.13;2.92;;;8.90;99.90;;;;;;5034874;28;20300;-84
2023/03/14 04:53:59;;;;;;;6.00;2.95;;;8.90;99.90;;;;;;5034676;28;20203;-84
2023/03/14 04:56:27;;;;;;;3.33;2.58;;;9.00;99.90;;;;;;5034944;28;20249;-83
2023/03/14 04:58:59;;;;;;;2.55;2.35;;;9.10;99.90;;;;;;5034154;28;20256;-82
2023/03/14 05:01:28;;;;;;;2.38;2.22;;;9.20;99.90;;;;;;5034532;28;20294;-82
2023/03/14 05:03:56;;;;;;;3.78;2.90;;;9.20;99.90;;;;;;5034832;28;20264;-83
2023/03/14 05:06:25;;;;;;;3.70;2.38;;;9.20;99.90;;;;;;5034257;28;20210;-83
2023/03/14 05:08:53;;;;;;;11.98;2.65;;;9.30;99.90;;;;;;5034395;28;20301;-83
2023/03/14 05:11:21;;;;;;;3.05;2.75;;;9.30;99.90;;;;;;5034240;28;20281;-83
2023/03/14 05:13:50;;;;;;;2.53;2.30;;;9.30;99.90;;;;;;5034327;28;20209;-83
2023/03/14 05:16:19;;;;;;;3.40;3.08;;;9.30;99.90;;;;;;5034178;28;20210;-82
2023/03/14 05:18:48;;;;;;;3.67;3.38;;;9.30;99.90;;;;;;5033675;28;20213;-82
2023/03/14 05:21:16;;;;;;;3.97;3.15;;;9.30;99.90;;;;;;5034181;28;20233;-83
2023/03/14 05:23:44;;;;;;;3.80;2.58;;;9.30;99.90;;;;;;5033112;28;20206;-82
2023/03/14 05:26:13;;;;;;;3.33;3.03;;;9.30;99.90;;;;;;5034216;28;20212;-83
2023/03/14 05:28:41;;;;;;;2.95;2.67;;;9.30;99.90;;;;;;5033757;28;20217;-83
2023/03/14 05:31:10;;;;;;;2.78;2.58;;;9.30;99.90;;;;;;5033550;28;20258;-83
2023/03/14 05:33:40;;;;;;;4.20;3.17;;;9.30;99.90;;;;;;5033851;28;20206;-83
2023/03/14 05:36:09;;;;;;;5.32;2.65;;;9.20;99.90;;;;;;5034541;28;20298;-83
2023/03/14 05:38:38;;;;;;;2.92;2.63;;;9.20;99.90;;;;;;5033552;28;20218;-83
2023/03/14 05:41:06;;;;;;;2.63;2.42;;;9.30;99.90;;;;;;5033762;28;20305;-83
2023/03/14 05:43:34;;;;;;;3.58;3.05;;;9.30;99.90;;;;;;5033900;28;20271;-83
2023/03/14 05:46:03;;;;;;;6.20;3.92;;;9.30;99.90;;;;;;5033703;28;20210;-83
2023/03/14 05:48:31;;;;;;;3.45;3.08;;;9.30;99.90;;;;;;5033305;28;20211;-83
2023/03/14 05:51:01;;;;;;;3.22;2.92;;;9.40;99.90;;;;;;5033274;28;20293;-83
2023/03/14 05:53:30;;;;;;;3.80;3.20;;;9.40;99.90;;;;;;5033699;28;20206;-83
2023/03/14 05:55:58;;;;;;;4.57;3.40;;;9.40;99.90;;;;;;5033659;28;20261;-83
2023/03/14 05:58:26;;;;;;;3.83;3.53;;;9.50;99.90;;;;;;5032964;28;20210;-83
2023/03/14 06:00:55;;;;;;;3.33;3.03;;;9.40;99.90;;;;;;5033232;28;20222;-84
2023/03/14 06:03:23;;;;;;;3.03;2.70;;;9.40;99.90;;;;;;5033405;28;20207;-84
2023/03/14 06:05:52;;;;;;;6.70;2.78;;;9.50;99.90;;;;;;5033472;28;20213;-84
2023/03/14 06:08:22;;;;;;;4.60;3.17;;;9.40;99.90;;;;;;5033121;28;20241;-83
2023/03/14 06:10:50;;;;;;;3.33;2.92;;;9.40;99.90;;;;;;5033128;28;20250;-83
2023/03/14 06:13:19;;;;;;;2.75;2.55;;;9.40;99.90;;;;;;5033265;28;20237;-83
2023/03/14 06:15:47;;;;;;;3.53;2.88;;;9.40;99.90;;;;;;5033785;28;20330;-83
2023/03/14 06:18:18;;;;;;;4.15;2.80;;;9.40;99.90;;;;;;5032801;28;20218;-84
2023/03/14 06:20:47;;;;;;;2.80;2.60;;;9.30;99.90;;;;;;5033107;28;20222;-84
2023/03/14 06:23:16;;;;;;;3.75;2.70;;;9.30;99.90;;;;;;5033016;28;20210;-84
2023/03/14 06:25:46;;;;;;;3.17;2.60;;;9.30;99.90;;;;;;5033073;28;20238;-84
2023/03/14 06:28:15;;;;;;;6.28;2.95;;;9.30;99.90;;;;;;5032779;28;20214;-84
2023/03/14 06:30:43;;;;;;;3.55;3.25;;;9.30;99.90;;;;;;5032585;28;20226;-84
2023/03/14 06:33:11;;;;;;;4.35;3.08;;;9.30;99.90;;;;;;5032641;28;20206;-84
2023/03/14 06:35:39;;;;;;;4.45;3.33;;;9.30;99.90;;;;;;5032760;28;20261;-84
2023/03/14 06:38:08;;;;;;;3.13;2.83;;;9.30;99.90;;;;;;5032232;28;20477;-83
2023/03/14 06:40:36;;;;;;;3.55;3.15;;;9.40;99.90;;;;;;5032794;28;20234;-83
2023/03/14 06:43:06;;;;;;;4.80;3.60;;;9.40;99.90;;;;;;5032867;28;20297;-83
2023/03/14 06:45:34;;;;;;;4.75;3.97;;;9.40;99.90;;;;;;5033051;28;20348;-83
2023/03/14 06:48:03;;;;;;;5.15;3.65;;;9.40;99.90;;;;;;5032271;28;20198;-83
2023/03/14 06:50:31;;;;;;;3.17;2.85;;;9.40;99.90;;;;;;5032562;28;20294;-83
2023/03/14 06:53:00;;;;;;;3.90;3.20;;;9.50;99.90;;;;;;5032839;28;20236;-83
2023/03/14 06:55:28;;;;;;;4.55;3.72;;;9.50;99.90;;;;;;5032741;28;20202;-83
2023/03/14 06:57:57;;;;;;;4.40;4.00;;;9.60;99.90;;;;;;5031950;28;20267;-82
2023/03/14 07:00:27;;;;;;;9.40;4.35;;;9.60;99.90;;;;;;5032171;28;20265;-83
2023/03/14 07:02:58;;;;;;;8.50;4.28;;;9.70;99.90;;;;;;5032470;28;20245;-83
2023/03/14 07:05:26;;;;;;;5.22;3.45;;;9.70;99.90;;;;;;5032391;28;20209;-83
2023/03/14 07:07:55;;;;;;;4.07;3.42;;;9.70;99.90;;;;;;5032554;28;20297;-83
2023/03/14 07:10:23;;;;;;;3.90;3.50;;;9.70;99.90;;;;;;5032374;28;20320;-83
2023/03/14 07:12:54;;;;;;;4.03;3.30;;;9.80;99.90;;;;;;5032540;28;20202;-83
2023/03/14 07:15:22;;;;;;;7.70;3.72;;;9.90;99.90;;;;;;5032390;28;20289;-83
2023/03/14 07:17:52;;;;;;;4.45;3.95;;;10.00;99.90;;;;;;5032101;28;20264;-83
2023/03/14 07:20:20;;;;;;;4.97;4.00;;;10.00;99.90;;;;;;5032669;28;20226;-83
2023/03/14 07:22:49;;;;;;;9.50;4.97;;;10.10;99.90;;;;;;5032644;28;20220;-84
2023/03/14 07:25:21;;;;;;;9.65;4.50;;;10.10;99.90;;;;;;5032378;28;20237;-83
2023/03/14 07:27:49;;;;;;;8.18;4.78;;;10.10;99.90;;;;;;5031816;28;20214;-83
2023/03/14 07:30:19;;;;;;;6.78;4.15;;;10.10;99.90;;;;;;5030355;28;20220;-89
2023/03/14 07:32:49;;;;;;;5.63;3.97;;;10.10;99.90;;;;;;5042547;28;20233;-84
2023/03/14 07:35:20;;;;;;;6.80;4.15;;;10.10;99.90;;;;;;5034778;28;20205;-85
2023/03/14 07:37:48;;;;;;;5.10;4.22;;;10.20;99.90;;;;;;5032691;28;20233;-85
2023/03/14 07:40:17;;;;;;;4.95;3.97;;;10.10;99.90;;;;;;5032799;28;20234;-85
2023/03/14 07:42:46;;;;;;;4.43;3.80;;;10.20;99.90;;;;;;5040897;28;20268;-85
2023/03/14 07:45:14;;;;;;;4.50;3.78;;;10.30;99.90;;;;;;5034854;28;20210;-84
2023/03/14 07:47:43;;;;;;;5.78;3.85;;;10.30;99.90;;;;;;5034315;28;20233;-85
2023/03/14 07:50:12;;;;;;;2.08;1.80;;;10.50;99.90;;;;;;5040113;28;20218;-85
2023/03/14 07:52:41;;;;;;;1.75;1.65;;;10.60;99.90;;;;;;5035908;28;20246;-84
2023/03/14 07:55:13;;;;;;;1.75;1.65;;;11.10;99.90;;;;;;5035509;28;20218;-84
2023/03/14 07:57:41;;;;;;;1.60;1.42;;;11.40;99.90;;;;;;5037108;28;20199;-84
2023/03/14 08:00:13;;;;;;;1.63;1.52;;;11.60;99.90;;;;;;5035188;28;20263;-84
2023/03/14 08:02:43;;;;;;;2.50;1.05;;;11.70;99.90;;;;;;5035737;28;20229;-84
2023/03/14 08:05:12;;;;;;;1.52;1.40;;;11.90;99.90;;;;;;5035457;28;20211;-84
2023/03/14 08:07:41;;;;;;;1.55;1.45;;;12.00;99.90;;;;;;5034831;28;20264;-85
2023/03/14 08:10:12;;;;;;;1.20;1.15;;;12.00;99.90;;;;;;5023492;28;20223;-85
2023/03/14 08:12:42;;;;;;;3.00;1.80;;;12.00;99.90;;;;;;5035123;28;20226;-84
2023/03/14 08:15:11;;;;;;;4.88;1.42;;;12.00;99.90;;;;;;5036655;28;20289;-84
2023/03/14 08:17:40;;;;;;;2.13;1.70;;;12.10;99.90;;;;;;5035007;28;20237;-85
2023/03/14 08:20:11;;;;;;;1.05;1.02;;;12.10;99.90;;;;;;5035176;28;20253;-86
2023/03/14 08:22:41;;;;;;;1.25;1.15;;;12.10;99.90;;;;;;5035559;28;20202;-84
2023/03/14 08:25:10;;;;;;;0.55;0.55;;;12.20;99.90;;;;;;5035271;28;20198;-85
2023/03/14 08:27:39;;;;;;;0.73;0.73;;;12.20;99.90;;;;;;5035033;28;20211;-84
2023/03/14 08:30:11;;;;;;;1.10;1.10;;;12.30;99.90;;;;;;5035252;28;20284;-84
2023/03/14 08:32:39;;;;;;;0.70;0.70;;;12.30;99.90;;;;;;5034380;28;20233;-85
2023/03/14 08:35:09;;;;;;;0.60;0.60;;;12.30;99.90;;;;;;5034721;28;20222;-85
2023/03/14 08:37:38;;;;;;;0.60;0.60;;;12.30;99.90;;;;;;5034733;28;20269;-84
2023/03/14 08:40:09;;;;;;;0.60;0.60;;;12.30;99.90;;;;;;5034962;28;20232;-84
2023/03/14 08:42:38;;;;;;;0.90;0.70;;;12.40;99.90;;;;;;5035652;28;20203;-84
2023/03/14 08:45:09;;;;;;;0.80;0.80;;;12.30;99.90;;;;;;5034923;28;20209;-84
2023/03/14 08:47:37;;;;;;;0.88;0.88;;;12.30;99.90;;;;;;5034562;28;20237;-84
2023/03/14 08:50:09;;;;;;;1.10;1.10;;;12.40;99.90;;;;;;5050659;28;20317;-84
2023/03/14 08:52:43;;;;;;;1.92;1.30;;;12.50;99.90;;;;;;5054564;28;20225;-84
2023/03/14 08:55:13;;;;;;;1.35;1.15;;;12.40;99.90;;;;;;5054814;28;20223;-84
2023/03/14 08:57:42;;;;;;;0.90;0.90;;;12.40;99.90;;;;;;5054041;28;20202;-84
2023/03/14 09:00:14;;;;;;;1.98;1.02;;;12.50;99.90;;;;;;5054087;28;20233;-85
2023/03/14 09:02:42;;;;;;;0.77;0.77;;;12.50;99.90;;;;;;5035985;28;20187;-84
2023/03/14 09:05:11;;;;;;;2.25;1.00;;;12.40;99.90;;;;;;5034296;28;20233;-84
2023/03/14 09:07:40;;;;;;;1.67;0.70;;;12.50;99.90;;;;;;5034417;28;20269;-84
2023/03/14 09:10:12;;;;;;;0.88;0.88;;;12.50;99.90;;;;;;5034597;28;20269;-84
2023/03/14 09:12:41;;;;;;;0.90;0.90;;;12.50;99.90;;;;;;5034032;28;20222;-83
2023/03/14 09:15:10;;;;;;;2.30;1.33;;;12.50;99.90;;;;;;5033747;28;20202;-84
2023/03/14 09:17:41;;;;;;;1.20;1.20;;;12.60;99.90;;;;;;5039518;28;20296;-84
2023/03/14 09:20:11;;;;;;;1.77;1.67;;;12.60;99.90;;;;;;5033981;28;20284;-84
2023/03/14 09:22:39;;;;;;;1.40;1.30;;;12.70;99.90;;;;;;5033721;28;20248;-84
2023/03/14 09:25:09;;;;;;;1.27;1.17;;;12.70;99.90;;;;;;5034061;28;20225;-84
2023/03/14 09:27:39;;;;;;;1.55;1.35;;;12.70;99.90;;;;;;5033423;28;20276;-84
2023/03/14 09:30:11;;;;;;;31.42;1.70;;;12.70;99.90;;;;;;5033843;28;20264;-84
2023/03/14 09:32:39;;;;;;;1.85;1.75;;;12.80;99.90;;;;;;5013775;28;20318;-84
2023/03/14 09:35:08;;;;;;;2.50;2.30;;;12.80;99.90;;;;;;5022607;28;20211;-84
2023/03/14 09:37:38;;;;;;;3.67;3.17;;;12.80;99.90;;;;;;5033838;28;20276;-84
2023/03/14 09:40:10;;;;;;;1.00;0.95;;;12.80;99.90;;;;;;5032273;28;20218;-85
2023/03/14 09:42:41;;;;;;;0.95;0.95;;;12.80;99.90;;;;;;5047058;28;20236;-86
2023/03/14 09:45:17;;;;;;;3.25;1.70;;;12.80;99.90;;;;;;5051717;28;20257;-86
2023/03/14 09:47:47;;;;;;;2.08;1.98;;;12.80;99.90;;;;;;5033551;28;20214;-86
2023/03/14 09:50:30;;;;;;;3.33;2.50;;;12.80;99.90;;;;;;5052649;28;20224;-86
2023/03/14 09:53:04;;;;;;;2.38;2.17;;;12.70;99.90;;;;;;5041626;28;20301;-88
2023/03/14 09:55:34;;;;;;;2.60;2.40;;;12.70;99.90;;;;;;5033723;28;20207;-83
2023/03/14 09:58:12;;;;;;;4.10;2.20;;;12.70;99.90;;;;;;5032989;28;20237;-85
2023/03/14 10:00:44;;;;;;;4.65;2.58;;;12.60;99.90;;;;;;5033194;28;20226;-86
2023/03/14 10:03:25;;;;;;;2.35;2.22;;;12.60;99.90;;;;;;5033516;28;20210;-84
2023/03/14 10:05:56;;;;;;;2.72;2.53;;;12.70;99.90;;;;;;5048535;28;20205;-84
2023/03/14 10:08:24;;;;;;;1.67;1.58;;;12.70;99.90;;;;;;5051736;28;20210;-85
2023/03/14 10:10:54;;;;;;;2.20;2.03;;;12.80;99.90;;;;;;5052864;28;20256;-83
2023/03/14 10:13:27;;;;;;;2.13;1.95;;;12.80;99.90;;;;;;5052310;28;20221;-81
2023/03/14 10:15:59;;;;;;;1.10;1.10;;;12.90;99.90;;;;;;5052637;28;20267;-79
2023/03/14 10:18:30;;;;;;;1.75;1.65;;;12.90;99.90;;;;;;5052164;28;20217;-79
2023/03/14 10:21:17;;;;;;;1.25;1.10;;;13.00;99.90;;;;;;5052532;28;20324;-80
2023/03/14 10:23:46;;;;;;;1.45;1.35;;;13.10;99.90;;;;;;5052248;28;20213;-80
2023/03/14 10:26:18;;;;;;;1.00;1.00;;;13.20;99.90;;;;;;5052308;28;20217;-80
2023/03/14 10:28:52;;;;;;;0.82;0.82;;;13.20;99.90;;;;;;5051775;28;20217;-80
2023/03/14 10:31:26;;;;;;;2.03;1.83;;;13.20;99.90;;;;;;5052024;28;20289;-79
2023/03/14 10:34:02;;;;;;;2.78;2.00;;;13.30;99.90;;;;;;5051957;28;20261;-79
2023/03/14 10:36:33;;;;;;;1.58;1.48;;;13.30;99.90;;;;;;5052459;28;20221;-79
2023/03/14 10:39:24;;;;;;;0.80;0.80;;;13.30;99.90;;;;;;5051665;28;20205;-80
2023/03/14 10:41:54;;;;;;;1.25;1.08;;;13.30;99.90;;;;;;5052109;28;20244;-79
2023/03/14 10:44:26;;;;;;;1.17;1.13;;;13.30;99.90;;;;;;5052642;28;20284;-80
2023/03/14 10:47:01;;;;;;;1.10;1.00;;;13.20;99.90;;;;;;5051631;28;20216;-80
2023/03/14 10:49:31;;;;;;;0.63;0.63;;;13.00;99.90;;;;;;5052406;28;20245;-79
2023/03/14 10:52:13;;;;;;;1.85;0.75;;;12.90;99.90;;;;;;5052069;28;20260;-79
2023/03/14 10:54:44;;;;;;;1.38;0.88;;;12.80;99.90;;;;;;5051802;28;20209;-80
2023/03/14 10:57:12;;;;;;;0.77;0.77;;;12.70;99.90;;;;;;5051348;28;20202;-80
2023/03/14 10:59:44;;;;;;;0.88;0.60;;;12.60;99.90;;;;;;5052342;28;20244;-79
2023/03/14 11:02:40;;;;;;;0.65;0.65;;;12.60;99.90;;;;;;5051705;28;20213;-80
2023/03/14 11:05:26;;;;;;;0.60;0.60;;;12.50;99.90;;;;;;5051368;28;20206;-81
2023/03/14 11:08:01;;;;;;;0.70;0.70;;;12.50;99.90;;;;;;5051455;28;20251;-89
2023/03/14 11:10:33;;;;;;;2.15;0.57;;;12.40;99.90;;;;;;5051773;28;20225;-89
2023/03/14 11:13:16;;;;;;;0.75;0.75;;;12.40;99.90;;;;;;5051461;28;20313;-89
2023/03/14 11:15:55;;;;;;;0.50;0.50;;;12.30;99.90;;;;;;5052028;28;20202;-80
2023/03/14 11:18:46;;;;;;;0.47;0.47;;;12.30;99.90;;;;;;5051636;28;20216;-79
2023/03/14 11:21:19;;;;;;;0.40;0.40;;;12.20;99.90;;;;;;5054954;28;20305;-80
2023/03/14 11:23:58;;;;;;;0.75;0.75;;;12.20;99.90;;;;;;5055951;28;20289;-79
2023/03/14 11:26:33;;;;;;;0.40;0.40;;;12.20;99.90;;;;;;5055936;28;20229;-80
2023/03/14 11:29:18;;;;;;;0.65;0.60;;;12.20;99.90;;;;;;5055202;28;20308;-80
2023/03/14 11:31:48;;;;;;;0.73;0.73;;;12.10;99.90;;;;;;5055120;28;20300;-80
2023/03/14 11:34:21;;;;;;;0.50;0.50;;;12.10;99.90;;;;;;5055611;28;20218;-79
2023/03/14 11:36:54;;;;;;;0.47;0.40;;;12.10;99.90;;;;;;5055202;28;20240;-79
2023/03/14 11:39:22;;;;;;;0.60;0.60;;;12.00;99.90;;;;;;5055619;28;20220;-80
2023/03/14 11:41:53;;;;;;;0.20;0.20;;;12.00;99.90;;;;;;5055955;28;20240;-80
2023/03/14 11:44:26;;;;;;;0.47;0.47;;;12.00;99.90;;;;;;5056041;28;20206;-90
2023/03/14 11:47:03;;;;;;;0.50;0.50;;;11.90;99.90;;;;;;5055621;28;20206;-89
2023/03/14 11:49:38;;;;;;;0.65;0.65;;;11.90;99.90;;;;;;5055880;28;20221;-90
2023/03/14 11:52:13;;;;;;;1.17;1.08;;;11.80;99.90;;;;;;5056143;28;20209;-90
2023/03/14 11:54:46;;;;;;;0.70;0.70;;;11.80;99.90;;;;;;5055531;28;20274;-81
2023/03/14 11:57:17;;;;;;;0.70;0.70;;;11.80;99.90;;;;;;5055648;28;20292;-81
2023/03/14 11:59:52;;;;;;;0.90;0.88;;;11.70;99.90;;;;;;5055978;28;20256;-80
2023/03/14 12:02:34;;;;;;;1.77;0.82;;;11.70;99.90;;;;;;5055546;28;20201;-81
2023/03/14 12:05:37;;;;;;;0.80;0.80;;;11.70;99.90;;;;;;5055506;28;20289;-81
2023/03/14 12:08:26;;;;;;;1.83;0.77;;;11.60;99.90;;;;;;5053469;28;20205;-80
2023/03/14 12:10:56;;;;;;;0.80;0.80;;;11.40;99.90;;;;;;5055422;28;20313;-81
2023/03/14 12:13:29;;;;;;;0.70;0.70;;;11.30;99.90;;;;;;5055432;28;20229;-80
2023/03/14 12:16:00;;;;;;;1.33;0.95;;;11.30;99.90;;;;;;5055647;28;20236;-80
2023/03/14 12:18:32;;;;;;;1.10;0.60;;;11.30;99.90;;;;;;5055025;28;20213;-81
2023/03/14 12:21:04;;;;;;;0.50;0.50;;;11.30;99.90;;;;;;5055443;28;20240;-80
2023/03/14 12:23:42;;;;;;;0.65;0.65;;;11.30;99.90;;;;;;5055305;28;20234;-89
2023/03/14 12:26:17;;;;;;;1.05;0.90;;;11.20;99.90;;;;;;5055343;28;20256;-90
2023/03/14 12:28:51;;;;;;;1.85;1.10;;;11.20;99.90;;;;;;5054619;28;20277;-81
2023/03/14 12:31:41;;;;;;;0.70;0.70;;;11.20;99.90;;;;;;5053234;28;20233;-81
2023/03/14 12:34:34;;;;;;;1.30;0.77;;;11.10;99.90;;;;;;5054896;28;20271;-81
2023/03/14 12:37:34;;;;;;;0.75;0.65;;;11.10;99.90;;;;;;5054821;28;20236;-89
2023/03/14 12:40:19;;;;;;;4.47;0.80;;;11.10;99.90;;;;;;5032436;28;20248;-89
2023/03/14 12:42:59;;;;;;;0.63;0.63;;;11.10;99.90;;;;;;5055169;28;20241;-89
2023/03/14 12:45:30;;;;;;;1.10;0.90;;;11.10;99.90;;;;;;5055062;28;20255;-90
2023/03/14 12:48:07;;;;;;;0.80;0.80;;;11.10;99.90;;;;;;5054103;28;20277;-89
2023/03/14 12:50:42;;;;;;;0.60;0.60;;;11.10;99.90;;;;;;5054667;28;20286;-90
2023/03/14 12:53:44;;;;;;;0.43;0.43;;;11.10;99.90;;;;;;5055118;28;20205;-89
2023/03/14 12:56:24;;;;;;;0.90;0.80;;;11.10;99.90;;;;;;5054666;28;20209;-80
2023/03/14 12:59:35;;;;;;;0.60;0.60;;;11.10;99.90;;;;;;5054183;28;20205;-80
2023/03/14 13:02:20;;;;;;;0.70;0.70;;;11.10;99.90;;;;;;5054415;28;20296;-81
2023/03/14 13:04:52;;;;;;;0.63;0.63;;;11.10;99.90;;;;;;5054641;28;20202;-80
2023/03/14 13:07:59;;;;;;;0.50;0.50;;;11.10;99.90;;;;;;5054139;28;20293;-80
2023/03/14 13:10:29;;;;;;;0.90;0.77;;;11.10;99.90;;;;;;5054374;28;20304;-80
2023/03/14 13:13:16;;;;;;;0.70;0.70;;;11.10;99.90;;;;;;5054432;28;20209;-80
2023/03/14 13:15:47;;;;;;;0.60;0.60;;;11.10;99.90;;;;;;5053955;28;20229;-80